Time;durP1;ratioP1;P1;durP2;ratioP2;P2;SDS_P1;SDS_P2;PMS_P1;PMS_P2;Temp;Humidity;BMP_temperature;BMP_pressure;BME280_temperature;BME280_humidity;BME280_pressure;Samples;Min_cycle;Max_cycle;Signal;HPM_P1;HPM_P2
2023/03/22 00:01:23;;;;;;;;;22.00;17.00;23.20;35.70;;;;;;111840;1259;49020;-62
2023/03/22 00:03:51;;;;;;;;;19.00;18.00;23.20;35.60;;;;;;111885;1256;49432;-61
2023/03/22 00:06:18;;;;;;;;;23.00;19.00;23.30;35.70;;;;;;111881;1259;46939;-60
2023/03/22 00:08:47;;;;;;;;;18.67;17.67;23.30;35.70;;;;;;111896;1256;56730;-60
2023/03/22 00:11:13;;;;;;;;;20.50;17.50;23.30;35.70;;;;;;111840;1259;54302;-60
2023/03/22 00:13:41;;;;;;;;;19.67;18.00;23.20;35.60;;;;;;111863;1260;49275;-60
2023/03/22 00:16:08;;;;;;;;;19.50;18.00;23.20;35.60;;;;;;111897;1259;49623;-61
2023/03/22 00:18:34;;;;;;;;;17.00;16.00;23.20;35.60;;;;;;111803;1259;46888;-61
2023/03/22 00:21:01;;;;;;;;;19.00;17.00;23.20;35.70;;;;;;111769;1260;57404;-61
2023/03/22 00:23:27;;;;;;;;;20.00;14.50;23.20;35.60;;;;;;111882;1258;55013;-60
2023/03/22 00:25:54;;;;;;;;;21.50;20.00;23.10;35.50;;;;;;111902;1259;49680;-60
2023/03/22 00:28:20;;;;;;;;;18.00;17.00;23.20;35.70;;;;;;111921;1255;49681;-61
2023/03/22 00:30:55;;;;;;;;;16.00;15.00;23.10;35.50;;;;;;111933;1259;45921;-61
2023/03/22 00:33:21;;;;;;;;;23.00;20.00;23.10;35.50;;;;;;111901;1259;56222;-60
2023/03/22 00:35:49;;;;;;;;;18.67;17.67;23.10;35.60;;;;;;111938;1259;54900;-60
2023/03/22 00:38:16;;;;;;;;;21.00;18.50;23.10;35.50;;;;;;111897;1259;49220;-60
2023/03/22 00:40:42;;;;;;;;;21.00;19.00;23.10;35.60;;;;;;111888;1258;49418;-60
2023/03/22 00:43:08;;;;;;;;;21.50;20.00;23.10;35.50;;;;;;111857;1259;46747;-61
2023/03/22 00:45:36;;;;;;;;;17.00;15.00;23.10;35.50;;;;;;111947;1255;56788;-61
2023/03/22 00:48:03;;;;;;;;;20.50;19.50;23.10;35.50;;;;;;111944;1258;54327;-60
2023/03/22 00:50:29;;;;;;;;;23.00;21.00;23.10;35.50;;;;;;111912;1259;49331;-61
2023/03/22 00:52:55;;;;;;;;;21.50;20.00;23.10;35.50;;;;;;111861;1259;48881;-61
2023/03/22 00:55:21;;;;;;;;;16.50;15.50;23.10;35.60;;;;;;111866;1255;47570;-60
2023/03/22 00:57:47;;;;;;;;;19.00;18.00;23.10;35.50;;;;;;111862;1260;56802;-60
2023/03/22 01:00:15;;;;;;;;;18.00;17.00;23.10;35.60;;;;;;111907;1259;53731;-61
2023/03/22 01:02:42;;;;;;;;;24.00;19.00;23.00;35.50;;;;;;111870;1259;48954;-61
2023/03/22 01:05:14;;;;;;;;;22.00;18.50;23.00;35.40;;;;;;111882;1259;49975;-61
2023/03/22 01:07:44;;;;;;;;;20.00;18.00;23.00;35.50;;;;;;111917;1260;46332;-60
2023/03/22 01:10:11;;;;;;;;;20.00;19.00;23.00;35.40;;;;;;111914;1259;56047;-61
2023/03/22 01:12:37;;;;;;;;;19.33;17.67;23.00;35.40;;;;;;111835;1259;54200;-61
2023/03/22 01:15:05;;;;;;;;;22.00;21.00;23.00;35.50;;;;;;111864;1259;49753;-60
2023/03/22 01:17:32;;;;;;;;;18.50;17.50;23.00;35.40;;;;;;111895;1260;49686;-61
2023/03/22 01:19:58;;;;;;;;;22.00;19.50;23.00;35.50;;;;;;111883;1260;46655;-61
2023/03/22 01:22:24;;;;;;;;;22.00;20.00;23.00;35.50;;;;;;111828;1260;56901;-62
2023/03/22 01:24:50;;;;;;;;;26.00;22.00;23.00;35.50;;;;;;111924;1259;54008;-61
2023/03/22 01:27:16;;;;;;;;;21.00;19.00;22.90;35.40;;;;;;111915;1258;50092;-61
2023/03/22 01:29:43;;;;;;;;;17.50;16.50;23.00;35.50;;;;;;111921;1259;50585;-61
2023/03/22 01:32:09;;;;;;;;;20.50;18.50;22.90;35.40;;;;;;111839;1255;46299;-61
2023/03/22 01:34:35;;;;;;;;;21.00;19.00;22.90;35.40;;;;;;111861;1259;56953;-61
2023/03/22 01:37:01;;;;;;;;;26.00;19.50;22.90;35.40;;;;;;111886;1259;54087;-60
2023/03/22 01:39:27;;;;;;;;;22.50;21.00;23.00;35.40;;;;;;111849;1259;49186;-60
2023/03/22 01:41:54;;;;;;;;;21.00;19.00;22.90;35.40;;;;;;111856;1259;49962;-60
2023/03/22 01:44:22;;;;;;;;;26.00;21.00;22.90;35.40;;;;;;111903;1259;46231;-59
2023/03/22 01:46:49;;;;;;;;;19.50;18.00;22.90;35.40;;;;;;111873;1260;56088;-60
2023/03/22 01:49:21;;;;;;;;;21.50;19.00;22.90;35.40;;;;;;111882;1259;54274;-59
2023/03/22 01:51:49;;;;;;;;;21.00;20.00;22.90;35.40;;;;;;111849;1259;49627;-61
2023/03/22 01:54:23;;;;;;;;;27.00;20.00;22.90;35.50;;;;;;111932;1259;49446;-59
2023/03/22 01:56:49;;;;;;;;;21.00;19.50;22.90;35.40;;;;;;111916;1259;45936;-61
2023/03/22 01:59:16;;;;;;;;;22.00;21.00;22.90;35.40;;;;;;111817;1260;56699;-61
2023/03/22 02:01:45;;;;;;;;;20.00;18.00;22.90;35.40;;;;;;111846;1256;53646;-61
2023/03/22 02:04:18;;;;;;;;;22.33;19.67;22.80;35.30;;;;;;111946;1259;49283;-61
2023/03/22 02:06:46;;;;;;;;;23.00;21.00;22.80;35.30;;;;;;111882;1259;50351;-60
2023/03/22 02:09:16;;;;;;;;;23.00;19.50;22.90;35.40;;;;;;111851;1260;45861;-61
2023/03/22 02:11:48;;;;;;;;;20.00;19.00;22.80;35.30;;;;;;111856;1259;58373;-62
2023/03/22 02:14:36;;;;;;;;;21.00;19.00;22.80;35.30;;;;;;111808;1260;54599;-62
2023/03/22 02:17:02;;;;;;;;;23.00;20.00;22.80;35.30;;;;;;111895;1259;49787;-62
2023/03/22 02:19:41;;;;;;;;;18.00;17.00;22.80;35.30;;;;;;111854;1260;49770;-61
2023/03/22 02:22:22;;;;;;;;;21.00;19.00;22.80;35.30;;;;;;111831;1259;46565;-62
2023/03/22 02:25:22;;;;;;;;;21.50;20.00;22.80;35.30;;;;;;111814;1255;56461;-61
2023/03/22 02:28:09;;;;;;;;;22.50;18.00;22.80;35.30;;;;;;111912;1259;54084;-61
2023/03/22 02:30:39;;;;;;;;;21.00;18.00;22.80;35.30;;;;;;111897;1259;50082;-61
2023/03/22 02:33:21;;;;;;;;;19.67;17.67;22.80;35.30;;;;;;111744;1257;49873;-61
2023/03/22 02:35:47;;;;;;;;;21.00;16.00;22.80;35.30;;;;;;111887;1259;47543;-61
2023/03/22 02:38:51;;;;;;;;;22.00;20.50;22.80;35.30;;;;;;111929;1260;56971;-61
2023/03/22 02:41:35;;;;;;;;;18.50;17.50;22.80;35.30;;;;;;111895;1255;53475;-61
2023/03/22 02:44:20;;;;;;;;;21.00;17.67;22.80;35.30;;;;;;111785;1257;49259;-61
2023/03/22 02:47:13;;;;;;;;;23.50;20.00;22.70;35.30;;;;;;111853;1256;50147;-61
2023/03/22 02:49:53;;;;;;;;;27.00;21.00;22.70;35.30;;;;;;111837;1260;46531;-62
2023/03/22 02:52:34;;;;;;;;;22.00;18.00;22.70;35.20;;;;;;111743;1260;57138;-61
2023/03/22 02:55:28;;;;;;;;;21.00;19.00;22.70;35.30;;;;;;111933;1259;54188;-61
2023/03/22 02:57:59;;;;;;;;;24.00;20.00;22.70;35.20;;;;;;111880;1260;49901;-62
2023/03/22 03:00:26;;;;;;;;;21.50;18.50;22.70;35.20;;;;;;111885;1259;48983;-61
2023/03/22 03:02:58;;;;;;;;;19.00;17.00;22.70;35.30;;;;;;111846;1259;45922;-63
2023/03/22 03:05:27;;;;;;;;;18.50;17.00;22.70;35.30;;;;;;111931;1259;56568;-62
2023/03/22 03:07:57;;;;;;;;;18.00;17.00;22.70;35.30;;;;;;111901;1260;54695;-62
2023/03/22 03:10:25;;;;;;;;;23.00;22.00;22.70;35.20;;;;;;111886;1255;49429;-62
2023/03/22 03:12:51;;;;;;;;;20.33;19.00;22.70;35.20;;;;;;111715;1261;49762;-61
2023/03/22 03:15:20;;;;;;;;;25.00;21.00;22.70;35.30;;;;;;111942;1259;45983;-61
2023/03/22 03:17:49;;;;;;;;;19.50;18.00;22.70;35.20;;;;;;111848;1259;56838;-61
2023/03/22 03:20:36;;;;;;;;;18.00;16.00;22.70;35.20;;;;;;111908;1259;53509;-60
2023/03/22 03:23:48;;;;;;;;;20.00;18.00;22.60;35.20;;;;;;111859;1260;50493;-61
2023/03/22 03:26:58;;;;;;;;;21.00;18.00;22.60;35.20;;;;;;111825;1259;50208;-61
2023/03/22 03:29:45;;;;;;;;;19.00;17.50;22.60;35.20;;;;;;110577;1269;46649;-61
2023/03/22 03:32:27;;;;;;;;;23.00;19.00;22.60;35.10;;;;;;111822;1258;57933;-61
2023/03/22 03:35:24;;;;;;;;;20.00;18.50;22.60;35.70;;;;;;111887;1258;53997;-61
2023/03/22 03:37:57;;;;;;;;;21.00;19.00;22.60;35.20;;;;;;111899;1258;50488;-61
2023/03/22 03:40:27;;;;;;;;;22.50;17.00;22.60;35.10;;;;;;111812;1261;49298;-61
2023/03/22 03:42:55;;;;;;;;;18.00;17.00;22.60;35.20;;;;;;111832;1255;46721;-61
2023/03/22 03:45:22;;;;;;;;;23.50;20.00;22.60;35.20;;;;;;111812;1258;56743;-60
2023/03/22 03:47:55;;;;;;;;;20.00;18.00;22.60;35.20;;;;;;111812;1260;53397;-60
2023/03/22 03:50:23;;;;;;;;;19.00;16.00;22.60;35.20;;;;;;111895;1260;50275;-61
2023/03/22 03:52:51;;;;;;;;;21.67;20.33;22.60;35.20;;;;;;111843;1255;49711;-61
2023/03/22 03:55:18;;;;;;;;;19.50;18.50;22.60;35.20;;;;;;111952;1258;46102;-61
2023/03/22 03:57:44;;;;;;;;;19.00;18.00;22.60;35.20;;;;;;111815;1261;57716;-60
2023/03/22 04:00:13;;;;;;;;;19.00;18.00;22.50;35.10;;;;;;111872;1260;54141;-61
2023/03/22 04:02:40;;;;;;;;;20.00;19.00;22.50;35.10;;;;;;111818;1255;49118;-61
2023/03/22 04:05:07;;;;;;;;;20.50;16.00;22.50;35.20;;;;;;111900;1258;48938;-61
2023/03/22 04:07:34;;;;;;;;;23.00;21.50;22.50;35.10;;;;;;111904;1255;46109;-62
2023/03/22 04:10:01;;;;;;;;;19.50;18.00;22.50;35.10;;;;;;111846;1260;57448;-60
2023/03/22 04:12:27;;;;;;;;;25.00;24.00;22.50;35.10;;;;;;111817;1259;53839;-63
2023/03/22 04:14:54;;;;;;;;;22.00;21.00;22.50;35.10;;;;;;111896;1255;49942;-62
2023/03/22 04:17:21;;;;;;;;;18.00;16.50;22.50;35.10;;;;;;111897;1259;50238;-62
2023/03/22 04:19:48;;;;;;;;;17.00;16.00;22.50;35.10;;;;;;111888;1260;47679;-61
2023/03/22 04:22:17;;;;;;;;;19.50;16.50;22.50;35.10;;;;;;111809;1259;57584;-61
2023/03/22 04:24:49;;;;;;;;;22.00;21.00;22.50;35.10;;;;;;111907;1259;54110;-61
2023/03/22 04:27:18;;;;;;;;;21.00;19.00;22.50;35.10;;;;;;111903;1259;49727;-61
2023/03/22 04:29:49;;;;;;;;;19.67;17.33;22.50;35.10;;;;;;111912;1259;49708;-60
2023/03/22 04:32:23;;;;;;;;;19.00;17.00;22.40;35.00;;;;;;111864;1259;46226;-61
2023/03/22 04:34:50;;;;;;;;;19.00;17.00;22.40;35.00;;;;;;111871;1260;56329;-60
2023/03/22 04:37:17;;;;;;;;;18.00;16.00;22.40;35.00;;;;;;111847;1260;53547;-60
2023/03/22 04:39:44;;;;;;;;;25.00;18.00;22.40;35.00;;;;;;111917;1259;49213;-69
2023/03/22 04:42:11;;;;;;;;;28.00;24.50;22.40;35.20;;;;;;111835;1259;50247;-64
2023/03/22 04:44:37;;;;;;;;;26.00;22.67;22.40;38.90;;;;;;111914;1259;46237;-67
2023/03/22 04:47:03;;;;;;;;;26.00;23.00;22.40;39.70;;;;;;111880;1255;57736;-70
2023/03/22 04:49:30;;;;;;;;;24.00;23.00;22.50;40.30;;;;;;111947;1258;53391;-66
2023/03/22 04:51:56;;;;;;;;;28.50;25.00;22.50;40.70;;;;;;111832;1255;49265;-65
2023/03/22 04:54:23;;;;;;;;;28.00;26.50;22.50;41.00;;;;;;111884;1259;49853;-64
2023/03/22 04:56:49;;;;;;;;;33.00;27.00;22.60;41.30;;;;;;111938;1256;46306;-61
2023/03/22 04:59:19;;;;;;;;;34.00;31.00;22.70;41.70;;;;;;111889;1258;57055;-64
2023/03/22 05:01:49;;;;;;;;;30.00;28.00;22.70;41.90;;;;;;111827;1257;54231;-63
2023/03/22 05:04:15;;;;;;;;;33.50;28.00;22.80;41.90;;;;;;111899;1259;50475;-65
2023/03/22 05:06:41;;;;;;;;;33.00;27.00;22.80;41.40;;;;;;111907;1259;49041;-64
2023/03/22 05:09:08;;;;;;;;;37.00;30.00;22.90;41.10;;;;;;111921;1259;46438;-64
2023/03/22 05:11:35;;;;;;;;;31.00;27.50;22.90;41.20;;;;;;111848;1255;56621;-63
2023/03/22 05:14:01;;;;;;;;;44.00;32.00;22.90;41.80;;;;;;111919;1259;53912;-63
2023/03/22 05:16:28;;;;;;;;;43.00;33.00;23.00;42.00;;;;;;111861;1255;49909;-63
2023/03/22 05:18:54;;;;;;;;;41.00;31.00;23.10;42.20;;;;;;111899;1259;50329;-63
2023/03/22 05:21:27;;;;;;;;;34.00;30.00;23.10;42.20;;;;;;111843;1259;46230;-64
2023/03/22 05:23:56;;;;;;;;;39.00;29.00;23.10;42.10;;;;;;111909;1259;56552;-64
2023/03/22 05:26:25;;;;;;;;;44.00;32.00;23.20;42.10;;;;;;111887;1258;53308;-63
2023/03/22 05:28:52;;;;;;;;;39.00;31.00;23.20;42.00;;;;;;111900;1259;49253;-64
2023/03/22 05:31:20;;;;;;;;;37.50;31.00;23.30;41.90;;;;;;111778;1256;48844;-64
2023/03/22 05:33:49;;;;;;;;;46.00;34.33;23.30;41.80;;;;;;111886;1258;46933;-63
2023/03/22 05:36:16;;;;;;;;;39.50;32.00;23.40;41.80;;;;;;111872;1259;57322;-64
2023/03/22 05:38:44;;;;;;;;;33.50;29.50;23.40;41.60;;;;;;111934;1259;54793;-63
2023/03/22 05:41:11;;;;;;;;;42.00;30.00;23.40;41.50;;;;;;111826;1259;50789;-63
2023/03/22 05:43:37;;;;;;;;;37.00;30.00;23.50;41.50;;;;;;111913;1259;49813;-64
2023/03/22 05:46:08;;;;;;;;;33.00;29.00;23.50;41.40;;;;;;111848;1255;47488;-63
2023/03/22 05:48:36;;;;;;;;;37.00;30.00;23.60;41.30;;;;;;111951;1259;57274;-63
2023/03/22 05:51:06;;;;;;;;;35.00;30.00;23.60;41.20;;;;;;111867;1260;53914;-63
2023/03/22 05:53:32;;;;;;;;;42.00;31.00;23.60;41.10;;;;;;111853;1258;49927;-63
2023/03/22 05:56:01;;;;;;;;;41.00;31.00;23.70;41.00;;;;;;111892;1256;49018;-63
2023/03/22 05:58:29;;;;;;;;;32.00;28.00;23.70;40.90;;;;;;111884;1255;47617;-64
2023/03/22 06:00:59;;;;;;;;;32.50;28.00;23.70;40.80;;;;;;111779;1260;56983;-65
2023/03/22 06:03:27;;;;;;;;;33.00;29.00;23.70;40.70;;;;;;111898;1257;53938;-62
2023/03/22 06:05:53;;;;;;;;;31.00;29.00;23.70;41.00;;;;;;111893;1260;49868;-63
2023/03/22 06:08:21;;;;;;;;;33.50;27.00;23.80;41.10;;;;;;111891;1259;49520;-63
2023/03/22 06:10:49;;;;;;;;;36.00;28.00;23.80;41.30;;;;;;111897;1259;46252;-67
2023/03/22 06:13:17;;;;;;;;;30.00;26.50;23.90;41.40;;;;;;111894;1259;56789;-64
2023/03/22 06:15:43;;;;;;;;;30.00;28.00;24.00;41.40;;;;;;111891;1259;54009;-65
2023/03/22 06:18:10;;;;;;;;;38.50;29.00;24.10;41.50;;;;;;111920;1259;49603;-64
2023/03/22 06:20:37;;;;;;;;;28.00;25.00;24.20;41.30;;;;;;111868;1259;50505;-64
2023/03/22 06:23:04;;;;;;;;;28.00;24.00;24.20;41.10;;;;;;111834;1260;46494;-63
2023/03/22 06:25:31;;;;;;;;;31.00;25.00;24.30;41.00;;;;;;111906;1255;57738;-63
2023/03/22 06:27:57;;;;;;;;;33.00;27.00;24.40;40.90;;;;;;111885;1259;53396;-62
2023/03/22 06:30:23;;;;;;;;;29.67;23.00;24.50;40.70;;;;;;111903;1259;49888;-63
2023/03/22 06:32:49;;;;;;;;;32.00;27.00;24.50;40.60;;;;;;111812;1259;49608;-62
2023/03/22 06:35:16;;;;;;;;;27.50;26.00;24.60;41.10;;;;;;111883;1259;47575;-64
2023/03/22 06:37:42;;;;;;;;;31.50;27.00;24.70;40.50;;;;;;111820;1260;56176;-65
2023/03/22 06:40:09;;;;;;;;;27.67;24.67;24.80;40.20;;;;;;111888;1259;53725;-66
2023/03/22 06:42:35;;;;;;;;;28.00;27.00;24.80;40.30;;;;;;111840;1255;50060;-64
2023/03/22 06:45:03;;;;;;;;;24.00;23.00;24.90;40.50;;;;;;111908;1260;49920;-66
2023/03/22 06:47:29;;;;;;;;;35.50;27.50;24.90;40.20;;;;;;111842;1260;46859;-64
2023/03/22 06:49:55;;;;;;;;;31.50;27.00;24.90;40.30;;;;;;111862;1260;57564;-63
2023/03/22 06:52:22;;;;;;;;;29.00;27.00;24.90;40.20;;;;;;111830;1259;53987;-65
2023/03/22 06:54:48;;;;;;;;;26.00;21.50;24.90;40.20;;;;;;111870;1259;49556;-65
2023/03/22 06:57:14;;;;;;;;;28.00;25.00;25.00;40.20;;;;;;111909;1259;49175;-64
2023/03/22 06:59:41;;;;;;;;;26.67;23.33;25.10;40.10;;;;;;111894;1259;47012;-65
2023/03/22 07:02:10;;;;;;;;;25.00;21.00;25.10;40.00;;;;;;111844;1255;56677;-64
2023/03/22 07:04:37;;;;;;;;;28.50;24.50;25.20;40.00;;;;;;111803;1260;54213;-63
2023/03/22 07:07:03;;;;;;;;;27.00;25.00;25.20;39.80;;;;;;110977;1260;1170988;-63
2023/03/22 07:09:29;;;;;;;;;30.00;26.00;25.30;39.90;;;;;;111878;1256;49002;-64
2023/03/22 07:11:56;;;;;;;;;26.00;25.00;25.40;39.60;;;;;;111850;1259;46943;-64
2023/03/22 07:14:22;;;;;;;;;27.00;23.00;25.40;39.50;;;;;;111899;1259;56513;-64
2023/03/22 07:16:48;;;;;;;;;25.00;23.00;25.40;39.30;;;;;;111900;1259;54088;-68
2023/03/22 07:19:17;;;;;;;;;26.00;23.00;25.40;39.20;;;;;;111905;1259;49173;-69
2023/03/22 07:21:43;;;;;;;;;27.00;26.00;25.50;39.20;;;;;;111864;1259;49282;-66
2023/03/22 07:24:10;;;;;;;;;26.33;24.00;25.50;39.20;;;;;;111894;1260;46973;-65
2023/03/22 07:26:38;;;;;;;;;26.67;22.33;25.50;39.20;;;;;;111873;1260;56620;-66
2023/03/22 07:29:04;;;;;;;;;23.50;21.00;25.50;39.20;;;;;;111881;1260;53691;-68
2023/03/22 07:31:34;;;;;;;;;32.00;24.00;25.60;39.20;;;;;;111851;1259;49383;-62
2023/03/22 07:34:04;;;;;;;;;28.00;21.50;25.60;39.20;;;;;;111884;1259;49128;-62
2023/03/22 07:36:31;;;;;;;;;29.00;25.50;25.60;38.70;;;;;;111906;1260;44624;-62
2023/03/22 07:38:58;;;;;;;;;29.00;25.00;25.60;38.80;;;;;;111914;1260;57051;-62
2023/03/22 07:41:25;;;;;;;;;31.50;25.50;25.60;38.70;;;;;;111845;1259;53629;-62
2023/03/22 07:43:52;;;;;;;;;27.00;22.00;25.60;38.60;;;;;;111880;1259;49448;-61
2023/03/22 07:46:18;;;;;;;;;27.00;24.50;25.60;38.50;;;;;;111888;1259;49243;-65
2023/03/22 07:48:44;;;;;;;;;25.50;21.50;25.60;38.70;;;;;;111907;1255;45830;-64
2023/03/22 07:51:10;;;;;;;;;29.00;23.00;25.70;38.70;;;;;;111876;1257;57732;-67
2023/03/22 07:53:36;;;;;;;;;25.00;21.00;25.70;38.90;;;;;;111901;1259;54983;-64
2023/03/22 07:56:03;;;;;;;;;24.00;23.00;25.70;38.50;;;;;;111908;1259;50658;-64
2023/03/22 07:58:30;;;;;;;;;25.67;24.67;25.80;38.30;;;;;;111926;1255;49113;-66
2023/03/22 08:00:57;;;;;;;;;24.00;23.00;25.80;38.20;;;;;;111881;1259;46876;-66
2023/03/22 08:03:24;;;;;;;;;24.00;23.00;25.80;38.10;;;;;;111783;1260;57039;-65
2023/03/22 08:05:50;;;;;;;;;24.50;21.50;;;;;;;;111911;1259;54878;-68
2023/03/22 08:08:17;;;;;;;;;23.50;19.50;25.90;37.70;;;;;;111877;1256;49616;-71
2023/03/22 08:10:48;;;;;;;;;24.00;21.00;26.00;38.20;;;;;;111884;1260;48985;-67
2023/03/22 08:13:14;;;;;;;;;24.00;22.00;26.10;38.00;;;;;;111845;1258;46491;-72
2023/03/22 08:15:42;;;;;;;;;23.00;22.00;26.10;37.80;;;;;;111896;1258;57216;-77
2023/03/22 08:18:08;;;;;;;;;26.00;22.00;26.20;37.80;;;;;;111915;1260;53662;-71
2023/03/22 08:20:34;;;;;;;;;25.50;24.00;26.20;37.60;;;;;;111888;1259;48983;-68
2023/03/22 08:23:00;;;;;;;;;21.00;19.00;26.30;37.60;;;;;;111814;1260;49792;-70
2023/03/22 08:25:27;;;;;;;;;19.50;17.00;26.40;37.60;;;;;;111902;1259;46812;-66
2023/03/22 08:27:53;;;;;;;;;22.50;20.00;26.40;37.40;;;;;;111899;1255;56988;-64
2023/03/22 08:30:21;;;;;;;;;26.50;25.50;26.50;37.20;;;;;;111891;1258;54017;-70
2023/03/22 08:32:47;;;;;;;;;21.00;20.00;26.50;37.10;;;;;;111851;1259;49605;-73
2023/03/22 08:35:13;;;;;;;;;22.00;20.00;26.50;37.00;;;;;;111890;1259;49249;-72
2023/03/22 08:37:40;;;;;;;;;26.00;21.50;26.60;36.90;;;;;;111951;1259;46294;-67
2023/03/22 08:40:08;;;;;;;;;26.00;24.00;26.60;36.90;;;;;;111967;1259;57775;-69
2023/03/22 08:42:35;;;;;;;;;26.00;20.50;26.60;36.90;;;;;;111834;1256;53637;-69
2023/03/22 08:45:02;;;;;;;;;23.00;20.00;26.70;36.60;;;;;;111883;1260;49880;-66
2023/03/22 08:47:28;;;;;;;;;26.50;20.00;26.70;36.70;;;;;;111908;1259;50464;-62
2023/03/22 08:49:55;;;;;;;;;20.50;19.50;26.70;37.00;;;;;;111936;1255;46391;-62
2023/03/22 08:52:21;;;;;;;;;24.00;21.50;26.80;36.80;;;;;;111818;1260;56162;-63
2023/03/22 08:54:47;;;;;;;;;23.00;19.00;26.70;36.60;;;;;;111906;1255;54664;-63
2023/03/22 08:57:15;;;;;;;;;25.67;23.00;26.80;36.70;;;;;;111894;1259;50217;-63
2023/03/22 08:59:41;;;;;;;;;20.00;19.00;26.70;36.50;;;;;;111862;1260;48959;-63
2023/03/22 09:02:08;;;;;;;;;18.00;17.00;26.70;36.70;;;;;;111847;1255;47451;-62
2023/03/22 09:04:34;;;;;;;;;23.50;21.00;26.70;36.50;;;;;;111899;1259;57711;-68
2023/03/22 09:07:01;;;;;;;;;24.00;21.00;26.70;36.40;;;;;;111882;1260;54017;-66
2023/03/22 09:09:27;;;;;;;;;22.00;20.00;26.80;36.70;;;;;;111887;1259;49715;-71
2023/03/22 09:11:55;;;;;;;;;25.00;22.00;26.80;36.60;;;;;;111796;1260;49603;-65
2023/03/22 09:14:21;;;;;;;;;20.50;19.50;26.80;36.70;;;;;;111832;1260;46756;-69
2023/03/22 09:16:47;;;;;;;;;20.00;19.00;26.90;36.40;;;;;;111827;1260;56747;-74
2023/03/22 09:19:13;;;;;;;;;25.00;19.00;26.90;36.40;;;;;;111939;1255;53533;-71
2023/03/22 09:21:40;;;;;;;;;24.00;19.00;26.90;36.40;;;;;;111830;1260;48986;-69
2023/03/22 09:24:07;;;;;;;;;20.00;19.00;26.90;36.30;;;;;;111911;1259;49558;-77
2023/03/22 09:26:33;;;;;;;;;21.00;19.00;26.90;36.30;;;;;;111922;1258;46472;-72
2023/03/22 09:28:59;;;;;;;;;20.00;19.00;27.00;36.20;;;;;;111902;1257;56690;-67
2023/03/22 09:31:26;;;;;;;;;28.00;24.00;27.00;36.20;;;;;;111849;1259;53287;-68
2023/03/22 09:33:52;;;;;;;;;24.00;22.00;27.00;36.20;;;;;;111886;1259;49230;-68
2023/03/22 09:36:18;;;;;;;;;24.00;20.00;26.90;36.10;;;;;;111909;1260;49952;-69
2023/03/22 09:38:45;;;;;;;;;;;27.00;36.30;;;;;;111884;1258;47698;-66
2023/03/22 09:41:15;;;;;;;;;20.33;18.67;26.90;36.20;;;;;;111843;1257;57063;-67
2023/03/22 09:43:45;;;;;;;;;23.00;19.50;27.00;36.20;;;;;;111865;1257;53680;-68
2023/03/22 09:46:15;;;;;;;;;19.00;18.00;27.00;36.20;;;;;;111792;1260;49613;-68
2023/03/22 09:48:43;;;;;;;;;23.33;21.00;27.00;36.10;;;;;;111797;1261;50449;-68
2023/03/22 09:51:26;;;;;;;;;23.50;20.50;27.00;36.20;;;;;;111783;1259;46553;-65
2023/03/22 09:53:53;;;;;;;;;18.00;17.00;27.00;36.30;;;;;;111888;1259;56091;-70
2023/03/22 09:56:23;;;;;;;;;21.00;20.00;27.00;36.20;;;;;;111873;1259;54024;-72
2023/03/22 09:58:59;;;;;;;;;20.00;19.00;27.10;36.30;;;;;;111805;1260;49257;-66
2023/03/22 10:01:46;;;;;;;;;18.50;17.50;27.00;36.30;;;;;;111817;1261;50335;-63
2023/03/22 10:04:25;;;;;;;;;21.00;19.00;27.00;36.30;;;;;;111813;1260;46395;-63
2023/03/22 10:07:15;;;;;;;;;19.00;18.00;27.10;36.40;;;;;;111925;1260;57031;-65
2023/03/22 10:10:06;;;;;;;;;24.50;21.50;27.10;36.20;;;;;;111855;1260;53784;-65
2023/03/22 10:12:38;;;;;;;;;27.00;20.50;27.10;36.20;;;;;;111871;1260;49092;-69
2023/03/22 10:15:12;;;;;;;;;18.50;17.50;27.10;36.70;;;;;;111831;1260;49717;-65
2023/03/22 10:17:42;;;;;;;;;20.00;19.00;27.10;36.20;;;;;;111951;1257;46756;-65
2023/03/22 10:20:26;;;;;;;;;21.00;20.00;27.10;36.10;;;;;;111801;1260;56943;-65
2023/03/22 10:22:53;;;;;;;;;19.00;18.00;27.10;36.10;;;;;;111816;1260;53908;-71
2023/03/22 10:25:23;;;;;;;;;19.00;17.50;27.20;36.10;;;;;;111828;1257;49778;-71
2023/03/22 10:27:50;;;;;;;;;20.00;16.50;27.30;36.00;;;;;;111794;1261;49444;-69
2023/03/22 10:30:24;;;;;;;;;21.00;19.00;27.30;36.00;;;;;;111925;1259;46163;-67
2023/03/22 10:32:58;;;;;;;;;20.00;19.00;27.30;35.90;;;;;;111848;1255;57650;-64
2023/03/22 10:35:25;;;;;;;;;20.00;19.00;27.30;36.00;;;;;;111916;1259;53416;-68
2023/03/22 10:37:54;;;;;;;;;20.33;19.00;27.30;36.00;;;;;;111840;1260;49917;-67
2023/03/22 10:40:32;;;;;;;;;19.50;19.00;27.30;36.10;;;;;;111831;1261;49796;-65
2023/03/22 10:43:09;;;;;;;;;21.00;18.00;27.30;36.00;;;;;;111833;1259;46865;-67
2023/03/22 10:45:36;;;;;;;;;18.33;17.00;27.30;36.30;;;;;;111797;1260;56892;-72
2023/03/22 10:48:26;;;;;;;;;21.50;18.50;27.20;36.10;;;;;;111845;1260;54241;-67
2023/03/22 10:50:52;;;;;;;;;20.00;17.00;27.10;36.20;;;;;;111830;1261;49627;-68
2023/03/22 10:53:39;;;;;;;;;17.67;16.67;27.00;36.20;;;;;;111839;1259;49203;-72
2023/03/22 10:56:11;;;;;;;;;18.00;17.00;27.00;36.10;;;;;;111825;1259;46110;-68
2023/03/22 10:58:37;;;;;;;;;24.50;17.50;27.00;36.20;;;;;;111829;1256;56355;-68
2023/03/22 11:01:08;;;;;;;;;26.00;22.00;27.00;36.40;;;;;;111833;1260;54645;-68
2023/03/22 11:03:38;;;;;;;;;40.50;31.00;27.10;36.40;;;;;;111907;1260;49263;-67
2023/03/22 11:06:06;;;;;;;;;40.00;30.00;27.20;36.90;;;;;;111889;1259;49975;-68
2023/03/22 11:08:38;;;;;;;;;26.00;23.00;27.30;36.00;;;;;;111885;1260;46088;-65
2023/03/22 11:11:06;;;;;;;;;25.50;24.00;27.40;36.10;;;;;;111876;1257;57882;-66
2023/03/22 11:13:34;;;;;;;;;22.50;16.00;27.40;36.10;;;;;;111813;1257;53817;-67
2023/03/22 11:16:01;;;;;;;;;21.00;20.00;27.40;36.10;;;;;;111873;1258;49703;-66
2023/03/22 11:18:33;;;;;;;;;22.00;19.00;27.40;36.00;;;;;;111891;1260;49501;-66
2023/03/22 11:21:06;;;;;;;;;21.00;20.00;27.50;36.10;;;;;;111871;1260;46254;-67
2023/03/22 11:23:33;;;;;;;;;25.00;16.50;27.50;36.00;;;;;;111796;1260;56434;-67
2023/03/22 11:26:12;;;;;;;;;20.00;17.00;27.50;36.00;;;;;;111818;1259;54799;-67
2023/03/22 11:28:47;;;;;;;;;24.00;19.00;27.50;35.90;;;;;;111923;1259;49506;-66
2023/03/22 11:31:17;;;;;;;;;21.00;20.00;27.50;35.90;;;;;;111718;1261;49923;-67
2023/03/22 11:33:56;;;;;;;;;22.50;20.00;27.50;35.90;;;;;;111894;1259;46387;-66
2023/03/22 11:36:23;;;;;;;;;20.00;18.00;27.50;35.90;;;;;;111810;1259;56520;-67
2023/03/22 11:39:00;;;;;;;;;19.50;17.00;27.50;35.90;;;;;;111884;1259;54113;-67
2023/03/22 11:41:29;;;;;;;;;19.00;17.00;27.50;36.00;;;;;;111828;1259;50506;-67
2023/03/22 11:43:57;;;;;;;;;23.00;20.00;27.50;35.90;;;;;;111764;1262;49753;-68
2023/03/22 11:46:24;;;;;;;;;21.50;20.00;27.50;36.00;;;;;;111791;1255;46351;-67
2023/03/22 11:48:52;;;;;;;;;22.00;20.00;27.50;35.90;;;;;;111914;1260;56346;-66
2023/03/22 11:51:26;;;;;;;;;23.00;19.00;27.50;36.00;;;;;;111709;1260;53581;-67
2023/03/22 11:53:57;;;;;;;;;19.00;17.00;27.50;36.00;;;;;;111791;1259;49328;-67
2023/03/22 11:56:27;;;;;;;;;21.25;18.25;27.50;36.00;;;;;;111832;1261;49617;-68
2023/03/22 11:59:02;;;;;;;;;22.50;20.00;27.50;35.90;;;;;;111817;1259;46871;-67
2023/03/22 12:01:38;;;;;;;;;21.00;18.00;27.40;35.80;;;;;;111715;1260;56350;-68
2023/03/22 12:04:10;;;;;;;;;21.00;20.00;27.40;35.90;;;;;;111905;1259;53426;-67
2023/03/22 12:06:39;;;;;;;;;21.50;19.00;27.40;35.90;;;;;;111816;1257;49820;-67
2023/03/22 12:09:24;;;;;;;;;23.67;20.33;27.40;35.80;;;;;;111825;1259;49136;-68
2023/03/22 12:11:54;;;;;;;;;20.50;18.00;27.40;35.60;;;;;;111786;1257;47721;-67
2023/03/22 12:14:23;;;;;;;;;17.67;16.00;27.40;35.30;;;;;;111919;1259;57389;-68
2023/03/22 12:16:54;;;;;;;;;23.67;20.33;27.40;35.30;;;;;;111904;1259;54206;-66
2023/03/22 12:19:58;;;;;;;;;23.00;21.00;27.40;36.20;;;;;;111786;1259;49276;-68
2023/03/22 12:22:31;;;;;;;;;23.00;21.00;27.30;36.00;;;;;;111788;1260;49866;-66
2023/03/22 12:24:59;;;;;;;;;22.50;18.00;27.20;35.80;;;;;;111924;1258;46071;-66
2023/03/22 12:27:36;;;;;;;;;16.00;15.00;27.20;35.30;;;;;;111796;1260;56240;-69
2023/03/22 12:30:07;;;;;;;;;22.00;19.00;27.10;35.80;;;;;;111811;1257;53624;-67
2023/03/22 12:32:37;;;;;;;;;19.00;17.00;27.10;36.00;;;;;;111719;1260;49961;-68